sensor_id;sensor_type;location;lat;lon;timestamp;P1;durP1;ratioP1;P2;durP2;ratioP2
34892;SDS011;21106;52.240;20.902;2023-06-14T00:00:36;8.20;;;4.80;;
34892;SDS011;21106;52.240;20.902;2023-06-14T00:07:07;9.50;;;4.70;;
34892;SDS011;21106;52.240;20.902;2023-06-14T00:13:10;8.10;;;4.60;;
34892;SDS011;21106;52.240;20.902;2023-06-14T00:19:31;5.40;;;4.60;;
34892;SDS011;21106;52.240;20.902;2023-06-14T00:26:01;8.20;;;4.80;;
34892;SDS011;21106;52.240;20.902;2023-06-14T00:32:29;8.50;;;4.60;;
34892;SDS011;21106;52.240;20.902;2023-06-14T00:38:38;7.70;;;4.60;;
34892;SDS011;21106;52.240;20.902;2023-06-14T00:45:08;6.30;;;4.10;;
34892;SDS011;21106;52.240;20.902;2023-06-14T00:51:18;7.20;;;4.80;;
34892;SDS011;21106;52.240;20.902;2023-06-14T00:57:44;8.10;;;3.90;;
34892;SDS011;21106;52.240;20.902;2023-06-14T01:03:54;10.40;;;4.40;;
34892;SDS011;21106;52.240;20.902;2023-06-14T01:10:31;5.60;;;3.90;;
34892;SDS011;21106;52.240;20.902;2023-06-14T01:15:48;6.00;;;4.10;;
34892;SDS011;21106;52.240;20.902;2023-06-14T01:20:56;6.90;;;4.00;;
34892;SDS011;21106;52.240;20.902;2023-06-14T01:26:11;7.50;;;4.00;;
34892;SDS011;21106;52.240;20.902;2023-06-14T01:32:24;8.50;;;4.10;;
34892;SDS011;21106;52.240;20.902;2023-06-14T01:38:04;8.60;;;4.30;;
34892;SDS011;21106;52.240;20.902;2023-06-14T01:43:31;11.00;;;5.20;;
34892;SDS011;21106;52.240;20.902;2023-06-14T01:49:57;8.10;;;4.60;;
34892;SDS011;21106;52.240;20.902;2023-06-14T01:55:06;5.40;;;4.50;;
34892;SDS011;21106;52.240;20.902;2023-06-14T02:00:15;6.40;;;4.40;;
34892;SDS011;21106;52.240;20.902;2023-06-14T02:05:24;9.30;;;4.10;;
34892;SDS011;21106;52.240;20.902;2023-06-14T02:10:32;9.00;;;3.80;;
34892;SDS011;21106;52.240;20.902;2023-06-14T02:15:54;6.10;;;4.30;;
34892;SDS011;21106;52.240;20.902;2023-06-14T02:21:01;6.70;;;3.90;;
34892;SDS011;21106;52.240;20.902;2023-06-14T02:26:11;6.80;;;4.50;;
34892;SDS011;21106;52.240;20.902;2023-06-14T02:31:38;10.00;;;4.30;;
34892;SDS011;21106;52.240;20.902;2023-06-14T02:36:49;6.30;;;4.30;;
34892;SDS011;21106;52.240;20.902;2023-06-14T02:41:56;7.90;;;3.90;;
34892;SDS011;21106;52.240;20.902;2023-06-14T02:47:09;7.30;;;4.80;;
34892;SDS011;21106;52.240;20.902;2023-06-14T02:52:23;8.10;;;4.40;;
34892;SDS011;21106;52.240;20.902;2023-06-14T02:57:32;7.30;;;4.50;;
34892;SDS011;21106;52.240;20.902;2023-06-14T03:02:47;7.20;;;4.90;;
34892;SDS011;21106;52.240;20.902;2023-06-14T03:08:21;6.40;;;4.00;;
34892;SDS011;21106;52.240;20.902;2023-06-14T03:14:28;6.00;;;4.60;;
34892;SDS011;21106;52.240;20.902;2023-06-14T03:20:41;10.20;;;4.90;;
34892;SDS011;21106;52.240;20.902;2023-06-14T03:26:15;7.40;;;4.40;;
34892;SDS011;21106;52.240;20.902;2023-06-14T03:32:00;8.50;;;4.70;;
34892;SDS011;21106;52.240;20.902;2023-06-14T03:37:31;7.30;;;5.10;;
34892;SDS011;21106;52.240;20.902;2023-06-14T03:42:54;7.70;;;4.80;;
34892;SDS011;21106;52.240;20.902;2023-06-14T03:48:29;7.90;;;4.40;;
34892;SDS011;21106;52.240;20.902;2023-06-14T03:54:46;6.30;;;4.60;;
34892;SDS011;21106;52.240;20.902;2023-06-14T04:00:54;11.60;;;4.60;;
34892;SDS011;21106;52.240;20.902;2023-06-14T04:06:44;9.70;;;4.20;;
34892;SDS011;21106;52.240;20.902;2023-06-14T04:12:15;10.50;;;4.50;;
34892;SDS011;21106;52.240;20.902;2023-06-14T04:17:21;7.90;;;4.90;;
34892;SDS011;21106;52.240;20.902;2023-06-14T04:22:27;7.20;;;4.60;;
34892;SDS011;21106;52.240;20.902;2023-06-14T04:27:44;6.30;;;4.70;;
34892;SDS011;21106;52.240;20.902;2023-06-14T04:34:09;6.90;;;4.70;;
34892;SDS011;21106;52.240;20.902;2023-06-14T04:39:24;9.20;;;5.20;;
34892;SDS011;21106;52.240;20.902;2023-06-14T04:44:32;7.20;;;5.00;;
34892;SDS011;21106;52.240;20.902;2023-06-14T04:49:42;7.80;;;5.10;;
34892;SDS011;21106;52.240;20.902;2023-06-14T04:55:08;7.50;;;5.10;;
34892;SDS011;21106;52.240;20.902;2023-06-14T05:00:15;8.40;;;4.50;;
34892;SDS011;21106;52.240;20.902;2023-06-14T05:05:21;6.40;;;4.60;;
34892;SDS011;21106;52.240;20.902;2023-06-14T05:10:29;7.00;;;4.90;;
34892;SDS011;21106;52.240;20.902;2023-06-14T05:15:39;8.40;;;5.50;;
34892;SDS011;21106;52.240;20.902;2023-06-14T05:20:46;9.30;;;5.30;;
34892;SDS011;21106;52.240;20.902;2023-06-14T05:37:58;10.40;;;5.30;;
34892;SDS011;21106;52.240;20.902;2023-06-14T05:43:06;9.20;;;5.20;;
34892;SDS011;21106;52.240;20.902;2023-06-14T05:53:40;9.00;;;5.60;;
34892;SDS011;21106;52.240;20.902;2023-06-14T05:58:46;10.50;;;5.20;;
34892;SDS011;21106;52.240;20.902;2023-06-14T06:09:24;12.20;;;5.70;;
34892;SDS011;21106;52.240;20.902;2023-06-14T06:14:30;12.40;;;6.10;;
34892;SDS011;21106;52.240;20.902;2023-06-14T06:19:36;10.80;;;5.20;;
34892;SDS011;21106;52.240;20.902;2023-06-14T06:24:43;12.30;;;5.80;;
34892;SDS011;21106;52.240;20.902;2023-06-14T06:30:06;9.80;;;5.50;;
34892;SDS011;21106;52.240;20.902;2023-06-14T06:35:12;7.90;;;5.20;;
34892;SDS011;21106;52.240;20.902;2023-06-14T06:40:19;11.80;;;6.40;;
34892;SDS011;21106;52.240;20.902;2023-06-14T06:45:26;9.00;;;5.20;;
34892;SDS011;21106;52.240;20.902;2023-06-14T06:50:36;8.30;;;4.50;;
34892;SDS011;21106;52.240;20.902;2023-06-14T06:56:02;12.90;;;4.90;;
34892;SDS011;21106;52.240;20.902;2023-06-14T07:12:11;10.90;;;5.60;;
34892;SDS011;21106;52.240;20.902;2023-06-14T07:17:18;12.50;;;6.10;;
34892;SDS011;21106;52.240;20.902;2023-06-14T07:22:41;8.00;;;5.90;;
34892;SDS011;21106;52.240;20.902;2023-06-14T07:29:00;10.50;;;5.80;;
34892;SDS011;21106;52.240;20.902;2023-06-14T07:34:12;12.70;;;6.50;;
34892;SDS011;21106;52.240;20.902;2023-06-14T07:39:37;9.80;;;5.50;;
34892;SDS011;21106;52.240;20.902;2023-06-14T07:44:43;10.50;;;5.70;;
34892;SDS011;21106;52.240;20.902;2023-06-14T07:49:49;12.20;;;5.90;;
34892;SDS011;21106;52.240;20.902;2023-06-14T08:00:46;9.00;;;5.30;;
34892;SDS011;21106;52.240;20.902;2023-06-14T08:05:52;6.30;;;4.50;;
34892;SDS011;21106;52.240;20.902;2023-06-14T08:11:02;6.60;;;4.50;;
34892;SDS011;21106;52.240;20.902;2023-06-14T08:16:09;7.90;;;5.00;;
34892;SDS011;21106;52.240;20.902;2023-06-14T08:21:15;8.70;;;4.90;;
34892;SDS011;21106;52.240;20.902;2023-06-14T08:26:22;10.40;;;4.90;;
34892;SDS011;21106;52.240;20.902;2023-06-14T08:31:29;11.80;;;5.10;;
34892;SDS011;21106;52.240;20.902;2023-06-14T08:49:11;10.70;;;4.40;;
34892;SDS011;21106;52.240;20.902;2023-06-14T08:55:06;8.60;;;4.20;;
34892;SDS011;21106;52.240;20.902;2023-06-14T09:00:58;10.60;;;4.20;;
34892;SDS011;21106;52.240;20.902;2023-06-14T09:06:34;10.70;;;4.50;;
34892;SDS011;21106;52.240;20.902;2023-06-14T09:11:54;10.90;;;4.70;;
34892;SDS011;21106;52.240;20.902;2023-06-14T09:17:17;11.80;;;5.40;;
34892;SDS011;21106;52.240;20.902;2023-06-14T09:22:23;7.90;;;5.00;;
34892;SDS011;21106;52.240;20.902;2023-06-14T09:27:42;9.30;;;4.70;;
34892;SDS011;21106;52.240;20.902;2023-06-14T09:32:58;11.90;;;5.20;;
34892;SDS011;21106;52.240;20.902;2023-06-14T09:38:54;7.90;;;4.80;;
34892;SDS011;21106;52.240;20.902;2023-06-14T09:44:07;5.80;;;4.40;;
34892;SDS011;21106;52.240;20.902;2023-06-14T09:50:20;14.50;;;4.70;;
34892;SDS011;21106;52.240;20.902;2023-06-14T09:55:43;9.50;;;3.90;;
34892;SDS011;21106;52.240;20.902;2023-06-14T10:00:58;9.00;;;4.20;;
34892;SDS011;21106;52.240;20.902;2023-06-14T10:13:40;9.70;;;3.70;;
34892;SDS011;21106;52.240;20.902;2023-06-14T10:19:18;8.80;;;3.90;;
34892;SDS011;21106;52.240;20.902;2023-06-14T10:24:37;15.20;;;4.50;;
34892;SDS011;21106;52.240;20.902;2023-06-14T10:30:02;7.30;;;3.60;;
34892;SDS011;21106;52.240;20.902;2023-06-14T10:35:09;5.70;;;3.50;;
34892;SDS011;21106;52.240;20.902;2023-06-14T10:40:33;8.30;;;3.20;;
34892;SDS011;21106;52.240;20.902;2023-06-14T10:51:23;6.30;;;3.30;;
34892;SDS011;21106;52.240;20.902;2023-06-14T11:04:09;6.40;;;3.40;;
34892;SDS011;21106;52.240;20.902;2023-06-14T11:21:01;7.00;;;2.70;;
34892;SDS011;21106;52.240;20.902;2023-06-14T11:43:01;6.90;;;3.10;;
34892;SDS011;21106;52.240;20.902;2023-06-14T11:48:39;5.80;;;3.60;;
34892;SDS011;21106;52.240;20.902;2023-06-14T12:05:15;4.70;;;2.10;;
34892;SDS011;21106;52.240;20.902;2023-06-14T12:10:27;5.30;;;2.10;;
34892;SDS011;21106;52.240;20.902;2023-06-14T12:16:18;9.50;;;2.70;;
34892;SDS011;21106;52.240;20.902;2023-06-14T12:21:40;8.50;;;1.90;;
34892;SDS011;21106;52.240;20.902;2023-06-14T12:26:51;4.50;;;2.20;;
34892;SDS011;21106;52.240;20.902;2023-06-14T12:32:19;5.80;;;1.90;;
34892;SDS011;21106;52.240;20.902;2023-06-14T16:20:54;3.40;;;2.40;;
34892;SDS011;21106;52.240;20.902;2023-06-14T16:26:14;6.50;;;2.60;;
34892;SDS011;21106;52.240;20.902;2023-06-14T17:04:48;6.40;;;3.20;;
34892;SDS011;21106;52.240;20.902;2023-06-14T17:09:54;7.60;;;3.30;;
34892;SDS011;21106;52.240;20.902;2023-06-14T17:26:41;11.30;;;3.50;;
34892;SDS011;21106;52.240;20.902;2023-06-14T17:31:49;7.40;;;4.10;;
34892;SDS011;21106;52.240;20.902;2023-06-14T17:36:56;6.60;;;4.10;;
34892;SDS011;21106;52.240;20.902;2023-06-14T17:42:09;7.90;;;4.00;;
34892;SDS011;21106;52.240;20.902;2023-06-14T17:52:54;11.10;;;4.60;;
34892;SDS011;21106;52.240;20.902;2023-06-14T17:58:22;9.70;;;3.80;;
34892;SDS011;21106;52.240;20.902;2023-06-14T18:09:09;8.10;;;3.90;;
34892;SDS011;21106;52.240;20.902;2023-06-14T18:14:46;7.70;;;4.20;;
34892;SDS011;21106;52.240;20.902;2023-06-14T18:20:02;7.50;;;4.00;;
34892;SDS011;21106;52.240;20.902;2023-06-14T18:25:25;6.10;;;3.60;;
34892;SDS011;21106;52.240;20.902;2023-06-14T18:36:09;7.30;;;3.60;;
34892;SDS011;21106;52.240;20.902;2023-06-14T18:41:46;7.60;;;3.40;;
34892;SDS011;21106;52.240;20.902;2023-06-14T20:44:39;7.20;;;5.10;;
34892;SDS011;21106;52.240;20.902;2023-06-14T20:49:46;6.70;;;5.10;;
34892;SDS011;21106;52.240;20.902;2023-06-14T20:54:53;7.40;;;5.90;;
34892;SDS011;21106;52.240;20.902;2023-06-14T21:00:00;12.30;;;6.00;;
34892;SDS011;21106;52.240;20.902;2023-06-14T21:05:12;9.50;;;6.20;;
34892;SDS011;21106;52.240;20.902;2023-06-14T21:10:18;11.20;;;6.60;;
34892;SDS011;21106;52.240;20.902;2023-06-14T21:15:26;12.50;;;6.90;;
34892;SDS011;21106;52.240;20.902;2023-06-14T21:20:32;15.00;;;7.00;;
34892;SDS011;21106;52.240;20.902;2023-06-14T21:25:40;9.60;;;6.50;;
34892;SDS011;21106;52.240;20.902;2023-06-14T21:50:38;13.40;;;7.00;;
34892;SDS011;21106;52.240;20.902;2023-06-14T21:56:52;10.20;;;6.00;;
34892;SDS011;21106;52.240;20.902;2023-06-14T22:03:13;10.40;;;6.30;;
34892;SDS011;21106;52.240;20.902;2023-06-14T22:09:01;8.40;;;6.10;;
34892;SDS011;21106;52.240;20.902;2023-06-14T22:14:32;8.50;;;6.10;;
34892;SDS011;21106;52.240;20.902;2023-06-14T22:21:04;11.10;;;6.40;;
34892;SDS011;21106;52.240;20.902;2023-06-14T22:27:33;11.40;;;6.20;;
34892;SDS011;21106;52.240;20.902;2023-06-14T22:40:13;10.30;;;6.40;;
34892;SDS011;21106;52.240;20.902;2023-06-14T22:46:44;11.40;;;6.60;;
34892;SDS011;21106;52.240;20.902;2023-06-14T22:52:48;13.20;;;5.90;;
34892;SDS011;21106;52.240;20.902;2023-06-14T22:59:16;7.00;;;5.60;;
34892;SDS011;21106;52.240;20.902;2023-06-14T23:05:16;7.90;;;6.20;;
34892;SDS011;21106;52.240;20.902;2023-06-14T23:11:27;10.00;;;6.00;;
34892;SDS011;21106;52.240;20.902;2023-06-14T23:17:12;10.60;;;6.30;;
34892;SDS011;21106;52.240;20.902;2023-06-14T23:23:29;9.00;;;5.70;;
34892;SDS011;21106;52.240;20.902;2023-06-14T23:29:30;8.80;;;6.50;;
34892;SDS011;21106;52.240;20.902;2023-06-14T23:35:18;15.30;;;7.50;;
34892;SDS011;21106;52.240;20.902;2023-06-14T23:41:21;9.40;;;6.80;;
34892;SDS011;21106;52.240;20.902;2023-06-14T23:47:16;14.30;;;7.60;;
34892;SDS011;21106;52.240;20.902;2023-06-14T23:53:29;13.20;;;8.00;;
34892;SDS011;21106;52.240;20.902;2023-06-14T23:59:36;12.00;;;7.80;;
